sensor_id;sensor_type;location;lat;lon;timestamp;temperature;humidity
66598;DHT22;57424;53.128;6.406;2023-04-15T00:00:05;19.70;48.00
66598;DHT22;57424;53.128;6.406;2023-04-15T00:02:31;19.70;48.00
66598;DHT22;57424;53.128;6.406;2023-04-15T00:04:57;19.60;47.90
66598;DHT22;57424;53.128;6.406;2023-04-15T00:07:22;19.60;47.90
66598;DHT22;57424;53.128;6.406;2023-04-15T00:09:48;19.60;47.90
66598;DHT22;57424;53.128;6.406;2023-04-15T00:12:13;19.60;48.00
66598;DHT22;57424;53.128;6.406;2023-04-15T00:14:39;19.60;47.90
66598;DHT22;57424;53.128;6.406;2023-04-15T00:17:04;19.60;48.00
66598;DHT22;57424;53.128;6.406;2023-04-15T00:19:31;19.50;47.90
66598;DHT22;57424;53.128;6.406;2023-04-15T00:21:56;19.50;48.00
66598;DHT22;57424;53.128;6.406;2023-04-15T00:24:23;19.50;47.90
66598;DHT22;57424;53.128;6.406;2023-04-15T00:26:48;19.50;48.00
66598;DHT22;57424;53.128;6.406;2023-04-15T00:29:14;19.50;48.00
66598;DHT22;57424;53.128;6.406;2023-04-15T00:31:40;19.50;48.00
66598;DHT22;57424;53.128;6.406;2023-04-15T00:34:06;19.50;48.00
66598;DHT22;57424;53.128;6.406;2023-04-15T00:36:32;19.40;47.90
66598;DHT22;57424;53.128;6.406;2023-04-15T00:38:59;19.40;48.00
66598;DHT22;57424;53.128;6.406;2023-04-15T00:41:25;19.40;48.00
66598;DHT22;57424;53.128;6.406;2023-04-15T00:43:51;19.40;48.00
66598;DHT22;57424;53.128;6.406;2023-04-15T00:46:18;19.40;48.00
66598;DHT22;57424;53.128;6.406;2023-04-15T00:48:46;19.40;48.00
66598;DHT22;57424;53.128;6.406;2023-04-15T00:51:12;19.40;48.00
66598;DHT22;57424;53.128;6.406;2023-04-15T00:53:38;19.40;48.00
66598;DHT22;57424;53.128;6.406;2023-04-15T00:56:04;19.40;48.00
66598;DHT22;57424;53.128;6.406;2023-04-15T00:58:30;19.40;48.00
66598;DHT22;57424;53.128;6.406;2023-04-15T01:00:56;19.40;48.10
66598;DHT22;57424;53.128;6.406;2023-04-15T01:03:22;19.40;48.00
66598;DHT22;57424;53.128;6.406;2023-04-15T01:05:48;19.30;48.00
66598;DHT22;57424;53.128;6.406;2023-04-15T01:08:14;19.30;48.00
66598;DHT22;57424;53.128;6.406;2023-04-15T01:10:40;19.30;48.00
66598;DHT22;57424;53.128;6.406;2023-04-15T01:13:06;19.30;48.00
66598;DHT22;57424;53.128;6.406;2023-04-15T01:15:32;19.30;48.00
66598;DHT22;57424;53.128;6.406;2023-04-15T01:18:00;19.30;48.00
66598;DHT22;57424;53.128;6.406;2023-04-15T01:20:28;19.30;48.00
66598;DHT22;57424;53.128;6.406;2023-04-15T01:22:54;19.30;48.00
66598;DHT22;57424;53.128;6.406;2023-04-15T01:25:33;19.30;48.10
66598;DHT22;57424;53.128;6.406;2023-04-15T01:27:59;19.30;48.00
66598;DHT22;57424;53.128;6.406;2023-04-15T01:30:25;19.20;48.00
66598;DHT22;57424;53.128;6.406;2023-04-15T01:32:54;19.20;48.00
66598;DHT22;57424;53.128;6.406;2023-04-15T01:35:20;19.20;48.00
66598;DHT22;57424;53.128;6.406;2023-04-15T01:37:47;19.20;48.00
66598;DHT22;57424;53.128;6.406;2023-04-15T01:40:12;19.20;48.00
66598;DHT22;57424;53.128;6.406;2023-04-15T01:42:39;19.20;48.00
66598;DHT22;57424;53.128;6.406;2023-04-15T01:45:05;19.20;48.00
66598;DHT22;57424;53.128;6.406;2023-04-15T01:47:31;19.10;47.90
66598;DHT22;57424;53.128;6.406;2023-04-15T01:49:57;19.20;48.00
66598;DHT22;57424;53.128;6.406;2023-04-15T01:52:23;19.20;48.00
66598;DHT22;57424;53.128;6.406;2023-04-15T01:54:49;19.10;47.90
66598;DHT22;57424;53.128;6.406;2023-04-15T01:57:15;19.10;48.00
66598;DHT22;57424;53.128;6.406;2023-04-15T01:59:41;19.10;48.00
66598;DHT22;57424;53.128;6.406;2023-04-15T02:02:06;19.10;47.90
66598;DHT22;57424;53.128;6.406;2023-04-15T02:04:32;19.10;47.90
66598;DHT22;57424;53.128;6.406;2023-04-15T02:06:58;19.10;48.00
66598;DHT22;57424;53.128;6.406;2023-04-15T02:09:24;19.10;48.00
66598;DHT22;57424;53.128;6.406;2023-04-15T02:11:51;19.10;47.90
66598;DHT22;57424;53.128;6.406;2023-04-15T02:14:17;19.10;47.90
66598;DHT22;57424;53.128;6.406;2023-04-15T02:16:43;19.10;47.90
66598;DHT22;57424;53.128;6.406;2023-04-15T02:19:08;19.00;47.90
66598;DHT22;57424;53.128;6.406;2023-04-15T02:21:34;19.10;48.00
66598;DHT22;57424;53.128;6.406;2023-04-15T02:24:00;19.00;47.90
66598;DHT22;57424;53.128;6.406;2023-04-15T02:26:26;19.00;47.90
66598;DHT22;57424;53.128;6.406;2023-04-15T02:28:52;19.00;47.90
66598;DHT22;57424;53.128;6.406;2023-04-15T02:31:18;19.00;47.90
66598;DHT22;57424;53.128;6.406;2023-04-15T02:33:43;19.00;47.90
66598;DHT22;57424;53.128;6.406;2023-04-15T02:36:09;19.00;47.90
66598;DHT22;57424;53.128;6.406;2023-04-15T02:38:36;19.00;47.90
66598;DHT22;57424;53.128;6.406;2023-04-15T02:41:04;19.00;47.90
66598;DHT22;57424;53.128;6.406;2023-04-15T02:43:30;18.90;47.90
66598;DHT22;57424;53.128;6.406;2023-04-15T02:45:56;19.00;48.00
66598;DHT22;57424;53.128;6.406;2023-04-15T02:48:21;19.00;47.90
66598;DHT22;57424;53.128;6.406;2023-04-15T02:50:47;18.90;47.90
66598;DHT22;57424;53.128;6.406;2023-04-15T02:53:12;18.90;47.90
66598;DHT22;57424;53.128;6.406;2023-04-15T02:55:39;18.90;47.90
66598;DHT22;57424;53.128;6.406;2023-04-15T02:58:05;18.90;47.90
66598;DHT22;57424;53.128;6.406;2023-04-15T03:00:31;18.90;47.90
66598;DHT22;57424;53.128;6.406;2023-04-15T03:03:02;18.90;47.90
66598;DHT22;57424;53.128;6.406;2023-04-15T03:05:28;18.90;47.90
66598;DHT22;57424;53.128;6.406;2023-04-15T03:07:54;18.90;48.60
66598;DHT22;57424;53.128;6.406;2023-04-15T03:10:20;18.90;47.90
66598;DHT22;57424;53.128;6.406;2023-04-15T03:12:46;18.90;47.90
66598;DHT22;57424;53.128;6.406;2023-04-15T03:15:12;18.80;47.90
66598;DHT22;57424;53.128;6.406;2023-04-15T03:17:38;18.80;47.90
66598;DHT22;57424;53.128;6.406;2023-04-15T03:20:04;18.80;47.80
66598;DHT22;57424;53.128;6.406;2023-04-15T03:22:31;18.80;48.50
66598;DHT22;57424;53.128;6.406;2023-04-15T03:24:57;18.80;47.90
66598;DHT22;57424;53.128;6.406;2023-04-15T03:27:23;18.80;47.80
66598;DHT22;57424;53.128;6.406;2023-04-15T03:29:48;18.80;47.80
66598;DHT22;57424;53.128;6.406;2023-04-15T03:32:14;18.80;47.80
66598;DHT22;57424;53.128;6.406;2023-04-15T03:34:40;18.80;47.90
66598;DHT22;57424;53.128;6.406;2023-04-15T03:37:06;18.80;47.90
66598;DHT22;57424;53.128;6.406;2023-04-15T03:39:32;18.80;47.90
66598;DHT22;57424;53.128;6.406;2023-04-15T03:41:57;18.80;47.90
66598;DHT22;57424;53.128;6.406;2023-04-15T03:44:25;18.80;47.80
66598;DHT22;57424;53.128;6.406;2023-04-15T03:46:51;18.80;47.80
66598;DHT22;57424;53.128;6.406;2023-04-15T03:49:16;18.70;47.80
66598;DHT22;57424;53.128;6.406;2023-04-15T03:51:43;18.80;47.80
66598;DHT22;57424;53.128;6.406;2023-04-15T03:54:09;18.70;47.80
66598;DHT22;57424;53.128;6.406;2023-04-15T03:56:35;18.70;47.80
66598;DHT22;57424;53.128;6.406;2023-04-15T03:59:01;18.70;47.80
66598;DHT22;57424;53.128;6.406;2023-04-15T04:01:26;18.70;47.80
66598;DHT22;57424;53.128;6.406;2023-04-15T04:03:52;18.70;47.80
66598;DHT22;57424;53.128;6.406;2023-04-15T04:06:18;18.70;47.80
66598;DHT22;57424;53.128;6.406;2023-04-15T04:08:44;18.70;47.80
66598;DHT22;57424;53.128;6.406;2023-04-15T04:11:09;18.70;47.80
66598;DHT22;57424;53.128;6.406;2023-04-15T04:13:35;18.70;47.80
66598;DHT22;57424;53.128;6.406;2023-04-15T04:16:01;18.70;47.80
66598;DHT22;57424;53.128;6.406;2023-04-15T04:18:26;18.60;47.70
66598;DHT22;57424;53.128;6.406;2023-04-15T04:20:52;18.60;47.70
66598;DHT22;57424;53.128;6.406;2023-04-15T04:23:18;18.70;47.80
66598;DHT22;57424;53.128;6.406;2023-04-15T04:25:43;18.60;47.70
66598;DHT22;57424;53.128;6.406;2023-04-15T04:28:09;18.60;47.70
66598;DHT22;57424;53.128;6.406;2023-04-15T04:30:36;18.60;47.70
66598;DHT22;57424;53.128;6.406;2023-04-15T04:33:01;18.60;47.70
66598;DHT22;57424;53.128;6.406;2023-04-15T04:35:27;18.60;47.70
66598;DHT22;57424;53.128;6.406;2023-04-15T04:37:52;18.60;47.70
66598;DHT22;57424;53.128;6.406;2023-04-15T04:40:18;18.60;47.70
66598;DHT22;57424;53.128;6.406;2023-04-15T04:42:44;18.60;47.70
66598;DHT22;57424;53.128;6.406;2023-04-15T04:45:10;18.60;47.70
66598;DHT22;57424;53.128;6.406;2023-04-15T04:47:35;18.60;47.70
66598;DHT22;57424;53.128;6.406;2023-04-15T04:50:01;18.60;47.70
66598;DHT22;57424;53.128;6.406;2023-04-15T04:52:26;18.60;47.70
66598;DHT22;57424;53.128;6.406;2023-04-15T04:54:52;18.50;47.60
66598;DHT22;57424;53.128;6.406;2023-04-15T04:57:17;18.50;47.60
66598;DHT22;57424;53.128;6.406;2023-04-15T04:59:43;18.50;47.60
66598;DHT22;57424;53.128;6.406;2023-04-15T05:02:08;18.50;47.70
66598;DHT22;57424;53.128;6.406;2023-04-15T05:04:34;18.50;47.70
66598;DHT22;57424;53.128;6.406;2023-04-15T05:07:01;18.50;47.60
66598;DHT22;57424;53.128;6.406;2023-04-15T05:09:26;18.50;47.70
66598;DHT22;57424;53.128;6.406;2023-04-15T05:11:52;18.50;47.60
66598;DHT22;57424;53.128;6.406;2023-04-15T05:14:18;18.50;47.60
66598;DHT22;57424;53.128;6.406;2023-04-15T05:16:43;18.40;47.60
66598;DHT22;57424;53.128;6.406;2023-04-15T05:19:09;18.50;47.70
66598;DHT22;57424;53.128;6.406;2023-04-15T05:21:35;18.50;47.60
66598;DHT22;57424;53.128;6.406;2023-04-15T05:24:00;18.40;47.50
66598;DHT22;57424;53.128;6.406;2023-04-15T05:26:26;18.40;47.60
66598;DHT22;57424;53.128;6.406;2023-04-15T05:28:51;18.40;47.60
66598;DHT22;57424;53.128;6.406;2023-04-15T05:31:17;18.40;47.60
66598;DHT22;57424;53.128;6.406;2023-04-15T05:33:43;18.40;47.60
66598;DHT22;57424;53.128;6.406;2023-04-15T05:36:08;18.40;47.60
66598;DHT22;57424;53.128;6.406;2023-04-15T05:38:34;18.40;47.60
66598;DHT22;57424;53.128;6.406;2023-04-15T05:41:00;18.40;47.60
66598;DHT22;57424;53.128;6.406;2023-04-15T05:43:25;18.40;47.60
66598;DHT22;57424;53.128;6.406;2023-04-15T05:45:51;18.40;47.60
66598;DHT22;57424;53.128;6.406;2023-04-15T05:48:17;18.40;47.70
66598;DHT22;57424;53.128;6.406;2023-04-15T05:50:42;18.40;47.70
66598;DHT22;57424;53.128;6.406;2023-04-15T05:53:08;18.40;48.40
66598;DHT22;57424;53.128;6.406;2023-04-15T05:55:34;18.40;47.70
66598;DHT22;57424;53.128;6.406;2023-04-15T05:57:59;18.40;47.70
66598;DHT22;57424;53.128;6.406;2023-04-15T06:00:25;18.40;47.70
66598;DHT22;57424;53.128;6.406;2023-04-15T06:02:51;18.40;47.70
66598;DHT22;57424;53.128;6.406;2023-04-15T06:05:17;18.40;47.70
66598;DHT22;57424;53.128;6.406;2023-04-15T06:07:43;18.40;47.70
66598;DHT22;57424;53.128;6.406;2023-04-15T06:10:09;18.30;47.70
66598;DHT22;57424;53.128;6.406;2023-04-15T06:12:35;18.30;47.70
66598;DHT22;57424;53.128;6.406;2023-04-15T06:15:01;18.40;47.80
66598;DHT22;57424;53.128;6.406;2023-04-15T06:17:26;18.40;47.70
66598;DHT22;57424;53.128;6.406;2023-04-15T06:19:52;18.30;47.80
66598;DHT22;57424;53.128;6.406;2023-04-15T06:22:21;18.30;47.80
66598;DHT22;57424;53.128;6.406;2023-04-15T06:24:50;18.30;47.70
66598;DHT22;57424;53.128;6.406;2023-04-15T06:27:16;18.30;47.80
66598;DHT22;57424;53.128;6.406;2023-04-15T06:29:41;18.30;47.70
66598;DHT22;57424;53.128;6.406;2023-04-15T06:32:07;18.30;47.70
66598;DHT22;57424;53.128;6.406;2023-04-15T06:34:33;18.30;47.80
66598;DHT22;57424;53.128;6.406;2023-04-15T06:36:58;18.30;47.70
66598;DHT22;57424;53.128;6.406;2023-04-15T06:39:25;18.30;47.70
66598;DHT22;57424;53.128;6.406;2023-04-15T06:41:51;18.30;47.80
66598;DHT22;57424;53.128;6.406;2023-04-15T06:44:17;18.30;47.80
66598;DHT22;57424;53.128;6.406;2023-04-15T06:46:43;18.30;47.80
66598;DHT22;57424;53.128;6.406;2023-04-15T06:49:09;18.30;47.80
66598;DHT22;57424;53.128;6.406;2023-04-15T06:51:36;18.30;47.90
66598;DHT22;57424;53.128;6.406;2023-04-15T06:54:03;18.30;48.00
66598;DHT22;57424;53.128;6.406;2023-04-15T06:56:31;18.30;48.20
66598;DHT22;57424;53.128;6.406;2023-04-15T06:58:57;18.30;48.40
66598;DHT22;57424;53.128;6.406;2023-04-15T07:01:22;18.40;48.50
66598;DHT22;57424;53.128;6.406;2023-04-15T07:03:48;18.40;48.50
66598;DHT22;57424;53.128;6.406;2023-04-15T07:06:13;18.40;48.50
66598;DHT22;57424;53.128;6.406;2023-04-15T07:08:39;18.40;48.50
66598;DHT22;57424;53.128;6.406;2023-04-15T07:11:04;18.40;49.20
66598;DHT22;57424;53.128;6.406;2023-04-15T07:13:31;18.40;48.50
66598;DHT22;57424;53.128;6.406;2023-04-15T07:15:57;18.40;48.50
66598;DHT22;57424;53.128;6.406;2023-04-15T07:18:22;18.50;48.60
66598;DHT22;57424;53.128;6.406;2023-04-15T07:20:48;18.40;48.50
66598;DHT22;57424;53.128;6.406;2023-04-15T07:23:13;18.40;48.50
66598;DHT22;57424;53.128;6.406;2023-04-15T07:25:39;18.50;48.60
66598;DHT22;57424;53.128;6.406;2023-04-15T07:28:05;18.50;48.70
66598;DHT22;57424;53.128;6.406;2023-04-15T07:30:30;18.50;48.80
66598;DHT22;57424;53.128;6.406;2023-04-15T07:32:57;18.50;48.80
66598;DHT22;57424;53.128;6.406;2023-04-15T07:35:23;18.50;48.80
66598;DHT22;57424;53.128;6.406;2023-04-15T07:37:50;18.50;48.90
66598;DHT22;57424;53.128;6.406;2023-04-15T07:40:16;18.50;48.80
66598;DHT22;57424;53.128;6.406;2023-04-15T07:42:42;18.60;48.90
66598;DHT22;57424;53.128;6.406;2023-04-15T07:45:08;18.60;49.00
66598;DHT22;57424;53.128;6.406;2023-04-15T07:47:34;18.60;49.00
66598;DHT22;57424;53.128;6.406;2023-04-15T07:50:00;18.60;49.00
66598;DHT22;57424;53.128;6.406;2023-04-15T07:52:26;18.60;49.00
66598;DHT22;57424;53.128;6.406;2023-04-15T07:54:52;18.60;49.00
66598;DHT22;57424;53.128;6.406;2023-04-15T07:57:17;18.60;49.00
66598;DHT22;57424;53.128;6.406;2023-04-15T07:59:43;18.60;49.00
66598;DHT22;57424;53.128;6.406;2023-04-15T08:02:10;18.60;49.00
66598;DHT22;57424;53.128;6.406;2023-04-15T08:04:35;18.60;49.00
66598;DHT22;57424;53.128;6.406;2023-04-15T08:07:02;18.60;49.00
66598;DHT22;57424;53.128;6.406;2023-04-15T08:09:28;18.60;49.00
66598;DHT22;57424;53.128;6.406;2023-04-15T08:11:53;18.60;49.00
66598;DHT22;57424;53.128;6.406;2023-04-15T08:14:19;18.60;49.00
66598;DHT22;57424;53.128;6.406;2023-04-15T08:16:45;18.60;49.00
66598;DHT22;57424;53.128;6.406;2023-04-15T08:19:10;18.60;49.10
66598;DHT22;57424;53.128;6.406;2023-04-15T08:21:36;18.60;49.30
66598;DHT22;57424;53.128;6.406;2023-04-15T08:24:01;18.70;49.40
66598;DHT22;57424;53.128;6.406;2023-04-15T08:26:27;18.70;49.50
66598;DHT22;57424;53.128;6.406;2023-04-15T08:28:53;18.70;49.60
66598;DHT22;57424;53.128;6.406;2023-04-15T08:31:19;18.70;49.70
66598;DHT22;57424;53.128;6.406;2023-04-15T08:33:45;18.70;49.70
66598;DHT22;57424;53.128;6.406;2023-04-15T08:36:11;18.70;49.80
66598;DHT22;57424;53.128;6.406;2023-04-15T08:38:38;18.70;49.70
66598;DHT22;57424;53.128;6.406;2023-04-15T08:41:08;18.70;49.70
66598;DHT22;57424;53.128;6.406;2023-04-15T08:43:52;18.80;49.80
66598;DHT22;57424;53.128;6.406;2023-04-15T08:46:19;18.80;49.80
66598;DHT22;57424;53.128;6.406;2023-04-15T08:48:47;18.80;49.80
66598;DHT22;57424;53.128;6.406;2023-04-15T08:51:13;18.80;49.80
66598;DHT22;57424;53.128;6.406;2023-04-15T08:53:42;18.80;50.40
66598;DHT22;57424;53.128;6.406;2023-04-15T08:56:08;18.80;49.70
66598;DHT22;57424;53.128;6.406;2023-04-15T08:58:35;18.80;49.70
66598;DHT22;57424;53.128;6.406;2023-04-15T09:01:02;18.80;49.70
66598;DHT22;57424;53.128;6.406;2023-04-15T09:03:28;18.90;49.70
66598;DHT22;57424;53.128;6.406;2023-04-15T09:05:53;18.90;49.70
66598;DHT22;57424;53.128;6.406;2023-04-15T09:08:19;18.90;50.40
66598;DHT22;57424;53.128;6.406;2023-04-15T09:10:45;18.90;49.60
66598;DHT22;57424;53.128;6.406;2023-04-15T09:13:11;18.90;49.60
66598;DHT22;57424;53.128;6.406;2023-04-15T09:15:39;18.90;49.60
66598;DHT22;57424;53.128;6.406;2023-04-15T09:18:06;18.90;49.60
66598;DHT22;57424;53.128;6.406;2023-04-15T09:20:41;18.90;49.60
66598;DHT22;57424;53.128;6.406;2023-04-15T09:23:14;18.90;49.60
66598;DHT22;57424;53.128;6.406;2023-04-15T09:25:40;19.00;49.60
66598;DHT22;57424;53.128;6.406;2023-04-15T09:28:09;19.00;49.70
66598;DHT22;57424;53.128;6.406;2023-04-15T09:30:36;19.00;49.70
66598;DHT22;57424;53.128;6.406;2023-04-15T09:33:02;19.00;49.70
66598;DHT22;57424;53.128;6.406;2023-04-15T09:35:33;19.00;49.70
66598;DHT22;57424;53.128;6.406;2023-04-15T09:38:05;19.00;49.60
66598;DHT22;57424;53.128;6.406;2023-04-15T09:40:41;19.00;49.60
66598;DHT22;57424;53.128;6.406;2023-04-15T09:43:09;19.10;49.60
66598;DHT22;57424;53.128;6.406;2023-04-15T09:45:37;19.00;49.50
66598;DHT22;57424;53.128;6.406;2023-04-15T09:48:17;19.10;49.60
66598;DHT22;57424;53.128;6.406;2023-04-15T09:50:43;19.10;49.70
66598;DHT22;57424;53.128;6.406;2023-04-15T09:53:09;19.10;49.70
66598;DHT22;57424;53.128;6.406;2023-04-15T09:55:38;19.10;49.60
66598;DHT22;57424;53.128;6.406;2023-04-15T09:58:08;19.20;49.60
66598;DHT22;57424;53.128;6.406;2023-04-15T10:00:35;19.20;49.60
66598;DHT22;57424;53.128;6.406;2023-04-15T10:03:03;19.20;49.60
66598;DHT22;57424;53.128;6.406;2023-04-15T10:05:30;19.20;49.50
66598;DHT22;57424;53.128;6.406;2023-04-15T10:07:56;19.30;49.60
66598;DHT22;57424;53.128;6.406;2023-04-15T10:10:22;19.30;49.50
66598;DHT22;57424;53.128;6.406;2023-04-15T10:12:48;19.30;49.40
66598;DHT22;57424;53.128;6.406;2023-04-15T10:15:15;19.30;49.40
66598;DHT22;57424;53.128;6.406;2023-04-15T10:17:43;19.30;49.40
66598;DHT22;57424;53.128;6.406;2023-04-15T10:20:10;19.30;49.30
66598;DHT22;57424;53.128;6.406;2023-04-15T10:22:37;19.30;49.30
66598;DHT22;57424;53.128;6.406;2023-04-15T10:25:04;19.30;49.30
66598;DHT22;57424;53.128;6.406;2023-04-15T10:27:30;19.30;49.30
66598;DHT22;57424;53.128;6.406;2023-04-15T10:29:56;19.30;49.40
66598;DHT22;57424;53.128;6.406;2023-04-15T10:32:23;19.30;49.30
66598;DHT22;57424;53.128;6.406;2023-04-15T10:34:50;19.30;49.30
66598;DHT22;57424;53.128;6.406;2023-04-15T10:37:21;19.40;49.40
66598;DHT22;57424;53.128;6.406;2023-04-15T10:39:47;19.30;49.30
66598;DHT22;57424;53.128;6.406;2023-04-15T10:42:16;19.40;49.40
66598;DHT22;57424;53.128;6.406;2023-04-15T10:44:50;19.40;49.40
66598;DHT22;57424;53.128;6.406;2023-04-15T10:47:18;19.30;49.30
66598;DHT22;57424;53.128;6.406;2023-04-15T10:49:45;19.30;49.30
66598;DHT22;57424;53.128;6.406;2023-04-15T10:52:11;19.40;49.40
66598;DHT22;57424;53.128;6.406;2023-04-15T10:54:37;19.40;49.40
66598;DHT22;57424;53.128;6.406;2023-04-15T10:59:35;19.40;49.30
66598;DHT22;57424;53.128;6.406;2023-04-15T11:02:03;19.40;49.30
66598;DHT22;57424;53.128;6.406;2023-04-15T11:04:54;19.30;49.20
66598;DHT22;57424;53.128;6.406;2023-04-15T11:07:51;19.40;49.20
66598;DHT22;57424;53.128;6.406;2023-04-15T11:12:51;19.30;49.10
66598;DHT22;57424;53.128;6.406;2023-04-15T11:17:52;19.40;49.20
66598;DHT22;57424;53.128;6.406;2023-04-15T11:20:17;19.40;49.20
66598;DHT22;57424;53.128;6.406;2023-04-15T11:22:50;19.40;49.20
66598;DHT22;57424;53.128;6.406;2023-04-15T11:25:23;19.40;49.20
66598;DHT22;57424;53.128;6.406;2023-04-15T11:27:49;19.40;49.10
66598;DHT22;57424;53.128;6.406;2023-04-15T11:30:20;19.40;49.10
66598;DHT22;57424;53.128;6.406;2023-04-15T11:32:47;19.40;49.10
66598;DHT22;57424;53.128;6.406;2023-04-15T11:35:12;19.30;49.00
66598;DHT22;57424;53.128;6.406;2023-04-15T11:37:38;19.40;49.00
66598;DHT22;57424;53.128;6.406;2023-04-15T11:40:05;19.40;49.00
66598;DHT22;57424;53.128;6.406;2023-04-15T11:42:31;19.40;48.90
66598;DHT22;57424;53.128;6.406;2023-04-15T11:45:10;19.40;48.90
66598;DHT22;57424;53.128;6.406;2023-04-15T11:47:40;19.40;48.80
66598;DHT22;57424;53.128;6.406;2023-04-15T11:50:22;19.30;48.70
66598;DHT22;57424;53.128;6.406;2023-04-15T11:52:58;19.40;48.80
66598;DHT22;57424;53.128;6.406;2023-04-15T11:55:26;19.40;48.80
66598;DHT22;57424;53.128;6.406;2023-04-15T11:58:12;19.40;48.70
66598;DHT22;57424;53.128;6.406;2023-04-15T12:00:39;19.40;48.70
66598;DHT22;57424;53.128;6.406;2023-04-15T12:03:26;19.40;48.70
66598;DHT22;57424;53.128;6.406;2023-04-15T12:16:23;19.40;48.70
66598;DHT22;57424;53.128;6.406;2023-04-15T12:18:54;19.40;48.60
66598;DHT22;57424;53.128;6.406;2023-04-15T12:21:24;19.40;48.60
66598;DHT22;57424;53.128;6.406;2023-04-15T12:23:52;19.30;48.50
66598;DHT22;57424;53.128;6.406;2023-04-15T12:26:25;19.40;48.60
66598;DHT22;57424;53.128;6.406;2023-04-15T12:28:55;19.30;48.50
66598;DHT22;57424;53.128;6.406;2023-04-15T12:31:24;19.40;48.60
66598;DHT22;57424;53.128;6.406;2023-04-15T12:33:50;19.30;48.50
66598;DHT22;57424;53.128;6.406;2023-04-15T12:36:16;19.30;48.50
66598;DHT22;57424;53.128;6.406;2023-04-15T12:38:41;19.30;48.50
66598;DHT22;57424;53.128;6.406;2023-04-15T12:41:07;19.30;48.50
66598;DHT22;57424;53.128;6.406;2023-04-15T12:43:32;19.30;48.50
66598;DHT22;57424;53.128;6.406;2023-04-15T12:45:58;19.30;48.50
66598;DHT22;57424;53.128;6.406;2023-04-15T12:48:23;19.30;48.50
66598;DHT22;57424;53.128;6.406;2023-04-15T12:50:49;19.30;48.40
66598;DHT22;57424;53.128;6.406;2023-04-15T12:53:15;19.30;48.50
66598;DHT22;57424;53.128;6.406;2023-04-15T12:55:41;19.30;48.50
66598;DHT22;57424;53.128;6.406;2023-04-15T12:58:06;19.30;48.50
66598;DHT22;57424;53.128;6.406;2023-04-15T13:00:33;19.30;48.40
66598;DHT22;57424;53.128;6.406;2023-04-15T13:02:59;19.30;48.40
66598;DHT22;57424;53.128;6.406;2023-04-15T13:05:25;19.30;48.40
66598;DHT22;57424;53.128;6.406;2023-04-15T13:07:50;19.30;48.40
66598;DHT22;57424;53.128;6.406;2023-04-15T13:10:16;19.30;48.40
66598;DHT22;57424;53.128;6.406;2023-04-15T13:12:42;19.30;48.40
66598;DHT22;57424;53.128;6.406;2023-04-15T13:15:08;19.30;48.40
66598;DHT22;57424;53.128;6.406;2023-04-15T13:17:35;19.30;48.30
66598;DHT22;57424;53.128;6.406;2023-04-15T13:20:01;19.30;48.30
66598;DHT22;57424;53.128;6.406;2023-04-15T13:22:27;19.30;48.30
66598;DHT22;57424;53.128;6.406;2023-04-15T13:24:52;19.30;48.40
66598;DHT22;57424;53.128;6.406;2023-04-15T13:27:18;19.30;48.40
66598;DHT22;57424;53.128;6.406;2023-04-15T13:29:43;19.30;48.30
66598;DHT22;57424;53.128;6.406;2023-04-15T13:32:09;19.30;49.00
66598;DHT22;57424;53.128;6.406;2023-04-15T13:34:34;19.30;48.50
66598;DHT22;57424;53.128;6.406;2023-04-15T13:37:06;19.30;48.30
66598;DHT22;57424;53.128;6.406;2023-04-15T13:39:32;19.30;48.30
66598;DHT22;57424;53.128;6.406;2023-04-15T13:41:57;19.30;48.30
66598;DHT22;57424;53.128;6.406;2023-04-15T13:44:23;19.20;48.30
66598;DHT22;57424;53.128;6.406;2023-04-15T13:46:49;19.30;48.30
66598;DHT22;57424;53.128;6.406;2023-04-15T13:49:14;19.20;48.30
66598;DHT22;57424;53.128;6.406;2023-04-15T13:51:40;19.20;48.30
66598;DHT22;57424;53.128;6.406;2023-04-15T13:54:06;19.30;48.30
66598;DHT22;57424;53.128;6.406;2023-04-15T13:56:31;19.20;48.30
66598;DHT22;57424;53.128;6.406;2023-04-15T13:58:57;19.30;48.30
66598;DHT22;57424;53.128;6.406;2023-04-15T14:01:26;19.20;48.30
66598;DHT22;57424;53.128;6.406;2023-04-15T14:03:51;19.20;48.30
66598;DHT22;57424;53.128;6.406;2023-04-15T14:06:17;19.20;48.30
66598;DHT22;57424;53.128;6.406;2023-04-15T14:08:43;19.20;48.30
66598;DHT22;57424;53.128;6.406;2023-04-15T14:11:08;19.20;48.70
66598;DHT22;57424;53.128;6.406;2023-04-15T14:13:35;19.20;48.30
66598;DHT22;57424;53.128;6.406;2023-04-15T14:16:00;19.20;48.40
66598;DHT22;57424;53.128;6.406;2023-04-15T14:18:26;19.20;48.40
66598;DHT22;57424;53.128;6.406;2023-04-15T14:20:52;19.20;48.30
66598;DHT22;57424;53.128;6.406;2023-04-15T14:23:17;19.20;48.40
66598;DHT22;57424;53.128;6.406;2023-04-15T14:25:43;19.20;48.40
66598;DHT22;57424;53.128;6.406;2023-04-15T14:28:08;19.20;48.40
66598;DHT22;57424;53.128;6.406;2023-04-15T14:30:34;19.10;48.40
66598;DHT22;57424;53.128;6.406;2023-04-15T14:33:00;19.10;48.40
66598;DHT22;57424;53.128;6.406;2023-04-15T14:35:25;19.10;48.50
66598;DHT22;57424;53.128;6.406;2023-04-15T14:37:54;19.10;48.50
66598;DHT22;57424;53.128;6.406;2023-04-15T14:40:20;19.10;48.50
66598;DHT22;57424;53.128;6.406;2023-04-15T14:42:46;19.10;48.50
66598;DHT22;57424;53.128;6.406;2023-04-15T14:45:11;19.10;48.60
66598;DHT22;57424;53.128;6.406;2023-04-15T14:47:37;19.10;48.70
66598;DHT22;57424;53.128;6.406;2023-04-15T14:50:03;19.10;48.70
66598;DHT22;57424;53.128;6.406;2023-04-15T14:52:31;19.10;48.80
66598;DHT22;57424;53.128;6.406;2023-04-15T14:55:07;19.10;48.90
66598;DHT22;57424;53.128;6.406;2023-04-15T14:57:33;19.10;49.00
66598;DHT22;57424;53.128;6.406;2023-04-15T14:59:58;19.10;49.00
66598;DHT22;57424;53.128;6.406;2023-04-15T15:02:24;19.20;49.20
66598;DHT22;57424;53.128;6.406;2023-04-15T15:04:50;19.20;49.20
66598;DHT22;57424;53.128;6.406;2023-04-15T15:07:15;19.20;49.20
66598;DHT22;57424;53.128;6.406;2023-04-15T15:09:41;19.20;49.30
66598;DHT22;57424;53.128;6.406;2023-04-15T15:12:06;19.20;49.20
66598;DHT22;57424;53.128;6.406;2023-04-15T15:14:32;19.20;49.20
66598;DHT22;57424;53.128;6.406;2023-04-15T15:16:58;19.20;49.20
66598;DHT22;57424;53.128;6.406;2023-04-15T15:19:24;19.20;49.20
66598;DHT22;57424;53.128;6.406;2023-04-15T15:21:49;19.20;49.10
66598;DHT22;57424;53.128;6.406;2023-04-15T15:24:15;19.20;49.10
66598;DHT22;57424;53.128;6.406;2023-04-15T15:26:41;19.20;49.10
66598;DHT22;57424;53.128;6.406;2023-04-15T15:29:06;19.20;49.10
66598;DHT22;57424;53.128;6.406;2023-04-15T15:31:33;19.20;49.10
66598;DHT22;57424;53.128;6.406;2023-04-15T15:33:59;19.20;49.10
66598;DHT22;57424;53.128;6.406;2023-04-15T15:36:25;19.20;49.10
66598;DHT22;57424;53.128;6.406;2023-04-15T15:38:51;19.20;49.20
66598;DHT22;57424;53.128;6.406;2023-04-15T15:41:17;19.20;49.30
66598;DHT22;57424;53.128;6.406;2023-04-15T15:43:42;19.20;49.40